Time;durP1;ratioP1;P1;durP2;ratioP2;P2;SDS_P1;SDS_P2;PMS_P1;PMS_P2;Temp;Humidity;BMP_temperature;BMP_pressure;BME280_temperature;BME280_humidity;BME280_pressure;Samples;Min_cycle;Max_cycle;Signal;HPM_P1;HPM_P2
2024/04/16 00:01:33;;;;;;;8.80;4.30;;;;;;;-141.15;100.00;60025.94;5424654;26;20574;-68
2024/04/16 00:04:04;;;;;;;9.25;4.35;;;;;;;-141.15;100.00;60025.94;5417031;26;20041;-69
2024/04/16 00:06:34;;;;;;;6.80;4.18;;;;;;;-141.15;100.00;60025.94;5412965;26;20247;-69
2024/04/16 00:09:05;;;;;;;10.65;4.30;;;;;;;-141.15;100.00;60025.94;5416859;26;20052;-68
2024/04/16 00:11:35;;;;;;;8.80;4.18;;;;;;;-141.15;100.00;60025.94;5419315;26;20019;-68
2024/04/16 00:14:05;;;;;;;10.70;4.15;;;;;;;-141.15;100.00;60025.94;5416309;26;20005;-67
2024/04/16 00:16:36;;;;;;;7.50;3.92;;;;;;;-141.15;100.00;60025.94;5418768;26;20353;-68
2024/04/16 00:19:06;;;;;;;8.15;3.90;;;;;;;-141.15;100.00;60025.94;5417032;26;20801;-68
2024/04/16 00:21:36;;;;;;;6.25;3.50;;;;;;;-141.15;100.00;60025.94;5423285;26;20024;-68
2024/04/16 00:24:07;;;;;;;8.77;3.35;;;;;;;-141.15;100.00;60025.94;5422363;26;20008;-68
2024/04/16 00:26:38;;;;;;;6.38;3.17;;;;;;;-141.15;100.00;60025.94;5418211;26;20024;-68
2024/04/16 00:29:08;;;;;;;4.45;2.88;;;;;;;-141.15;100.00;60025.94;5419803;26;21869;-68
2024/04/16 00:31:38;;;;;;;8.63;3.10;;;;;;;-141.15;100.00;60025.94;5421005;26;20399;-68
2024/04/16 00:34:09;;;;;;;5.88;2.90;;;;;;;-141.15;100.00;60025.94;5422303;26;21840;-68
2024/04/16 00:36:39;;;;;;;4.72;2.83;;;;;;;-141.15;100.00;60025.94;5422420;26;20016;-68
2024/04/16 00:39:12;;;;;;;5.25;3.00;;;;;;;-141.15;100.00;60025.94;5415200;26;20013;-68
2024/04/16 00:41:42;;;;;;;5.03;2.95;;;;;;;-141.15;100.00;60025.94;5419045;26;20004;-68
2024/04/16 00:44:12;;;;;;;4.30;3.03;;;;;;;-141.15;100.00;60025.94;5394840;26;20010;-69
2024/04/16 00:46:43;;;;;;;6.53;3.70;;;;;;;-141.15;100.00;60025.94;5392136;26;21595;-67
2024/04/16 00:49:13;;;;;;;6.25;3.10;;;;;;;-141.15;100.00;60025.94;5412303;26;20789;-68
2024/04/16 00:51:44;;;;;;;5.15;2.90;;;;;;;-141.15;100.00;60025.94;5395433;26;20419;-68
2024/04/16 00:54:15;;;;;;;4.00;2.85;;;;;;;-141.15;100.00;60025.94;5392360;26;20017;-67
2024/04/16 00:56:46;;;;;;;4.57;3.10;;;;;;;-141.15;100.00;60025.94;5392143;26;20010;-68
2024/04/16 00:59:16;;;;;;;3.90;2.80;;;;;;;-141.15;100.00;60025.94;5391931;26;20131;-67
2024/04/16 01:01:46;;;;;;;9.15;3.05;;;;;;;-141.15;100.00;60025.94;5410919;26;20017;-70
2024/04/16 01:04:17;;;;;;;4.18;2.80;;;;;;;-141.15;100.00;60025.94;5392627;26;20465;-68
2024/04/16 01:06:51;;;;;;;4.43;2.83;;;;;;;-141.15;100.00;60025.94;5388106;26;20044;-69
2024/04/16 01:09:21;;;;;;;4.60;2.70;;;;;;;-141.15;100.00;60025.94;5392061;26;20019;-68
2024/04/16 01:11:56;;;;;;;5.15;2.67;;;;;;;-141.15;100.00;60025.94;5392110;26;20009;-69
2024/04/16 01:14:27;;;;;;;4.35;2.50;;;;;;;-141.15;100.00;60025.94;5390965;26;20010;-69
2024/04/16 01:16:57;;;;;;;5.90;2.85;;;;;;;-141.15;100.00;60025.94;5394783;26;20005;-70
2024/04/16 01:19:27;;;;;;;4.35;2.25;;;;;;;-141.15;100.00;60025.94;5392793;26;20040;-70
2024/04/16 01:21:58;;;;;;;4.60;2.35;;;;;;;-141.15;100.00;60025.94;5392014;26;20376;-70
2024/04/16 01:24:28;;;;;;;3.42;2.60;;;;;;;-141.15;100.00;60025.94;5395284;26;20057;-70
2024/04/16 01:26:59;;;;;;;5.13;2.10;;;;;;;-141.15;100.00;60025.94;5389442;26;20046;-70
2024/04/16 01:29:29;;;;;;;3.88;2.20;;;;;;;-141.15;100.00;60025.94;5393428;26;20642;-69
2024/04/16 01:32:00;;;;;;;3.95;2.13;;;;;;;-141.15;100.00;60025.94;5386453;26;20016;-70
2024/04/16 01:34:30;;;;;;;3.38;1.83;;;;;;;-141.15;100.00;60025.94;5391707;26;20021;-69
2024/04/16 01:37:00;;;;;;;3.45;1.98;;;;;;;-141.15;100.00;60025.94;5388510;26;20016;-70
2024/04/16 01:39:30;;;;;;;4.18;1.98;;;;;;;-141.15;100.00;60025.94;5393443;26;20009;-69
2024/04/16 01:42:01;;;;;;;3.92;1.90;;;;;;;-141.15;100.00;60025.94;5391716;26;21707;-69
2024/04/16 01:44:31;;;;;;;3.97;1.88;;;;;;;-141.15;100.00;60025.94;5391554;26;20012;-70
2024/04/16 01:47:02;;;;;;;3.30;1.67;;;;;;;-141.15;100.00;60025.94;5389576;26;20024;-70
2024/04/16 01:49:32;;;;;;;3.55;1.63;;;;;;;-141.15;100.00;60025.94;5393761;26;20009;-70
2024/04/16 01:52:03;;;;;;;2.83;1.50;;;;;;;-141.15;100.00;60025.94;5392419;26;20005;-70
2024/04/16 01:54:33;;;;;;;3.00;1.60;;;;;;;-141.15;100.00;60025.94;5396344;26;20051;-69
2024/04/16 01:57:05;;;;;;;4.03;1.27;;;;;;;-141.15;100.00;60025.94;5394755;26;20085;-70
2024/04/16 01:59:36;;;;;;;4.50;1.50;;;;;;;-141.15;100.00;60025.94;5391603;26;20054;-69
2024/04/16 02:02:07;;;;;;;3.88;1.30;;;;;;;-141.15;100.00;60025.94;5411679;26;20012;-69
2024/04/16 02:04:38;;;;;;;4.20;1.20;;;;;;;-141.15;100.00;60025.94;5389672;26;20017;-69
2024/04/16 02:07:08;;;;;;;2.35;1.10;;;;;;;-141.15;100.00;60025.94;5389785;26;20560;-69
2024/04/16 02:09:38;;;;;;;2.15;1.08;;;;;;;-141.15;100.00;60025.94;5390735;26;20012;-69
2024/04/16 02:12:09;;;;;;;3.30;0.93;;;;;;;-141.15;100.00;60025.94;5393308;26;20779;-70
2024/04/16 02:14:39;;;;;;;5.28;1.08;;;;;;;-141.15;100.00;60025.94;5391279;26;20119;-70
2024/04/16 02:17:10;;;;;;;5.63;0.93;;;;;;;-141.15;100.00;60025.94;5391945;26;20006;-70
2024/04/16 02:19:41;;;;;;;5.63;1.30;;;;;;;-141.15;100.00;60025.94;5389927;26;20010;-70
2024/04/16 02:22:11;;;;;;;5.18;1.15;;;;;;;-141.15;100.00;60025.94;5408985;26;20071;-69
2024/04/16 02:24:41;;;;;;;5.90;1.17;;;;;;;-141.15;100.00;60025.94;5410011;26;20420;-69
2024/04/16 02:27:11;;;;;;;2.72;1.00;;;;;;;-141.15;100.00;60025.94;5385217;26;20058;-69
2024/04/16 02:29:42;;;;;;;2.55;1.00;;;;;;;-141.15;100.00;60025.94;5387347;26;20473;-70
2024/04/16 02:32:12;;;;;;;3.10;1.00;;;;;;;-141.15;100.00;60025.94;5392733;26;20010;-69
2024/04/16 02:34:42;;;;;;;3.92;0.93;;;;;;;-141.15;100.00;60025.94;5396895;26;22555;-68
2024/04/16 02:37:13;;;;;;;4.45;0.98;;;;;;;-141.15;100.00;60025.94;5394209;26;20652;-68
2024/04/16 02:39:43;;;;;;;3.25;1.05;;;;;;;-141.15;100.00;60025.94;5396555;26;20037;-68
2024/04/16 02:42:13;;;;;;;2.67;0.80;;;;;;;-141.15;100.00;60025.94;5395263;26;20002;-68
2024/04/16 02:44:44;;;;;;;2.67;0.90;;;;;;;-141.15;100.00;60025.94;5408516;26;20481;-68
2024/04/16 02:47:14;;;;;;;2.13;0.98;;;;;;;-141.15;100.00;60025.94;5421640;26;20021;-68
2024/04/16 02:49:44;;;;;;;2.22;0.80;;;;;;;-141.15;100.00;60025.94;5422335;26;20009;-68
2024/04/16 02:52:14;;;;;;;1.40;0.90;;;;;;;-141.15;100.00;60025.94;5422153;26;20004;-68
2024/04/16 02:54:45;;;;;;;2.35;1.08;;;;;;;-141.15;100.00;60025.94;5419039;26;21842;-68
2024/04/16 02:57:15;;;;;;;3.22;1.10;;;;;;;-141.15;100.00;60025.94;5423058;26;20107;-68
2024/04/16 02:59:49;;;;;;;2.53;1.48;;;;;;;-141.15;100.00;60025.94;5420535;26;20111;-68
2024/04/16 03:02:19;;;;;;;2.47;1.35;;;;;;;-141.15;100.00;60025.94;5423678;26;20720;-68
2024/04/16 03:04:49;;;;;;;3.83;1.80;;;;;;;-141.15;100.00;60025.94;5421222;26;20675;-68
2024/04/16 03:07:20;;;;;;;3.38;1.45;;;;;;;-141.15;100.00;60025.94;5421098;26;20704;-68
2024/04/16 03:09:50;;;;;;;3.20;1.42;;;;;;;-141.15;100.00;60025.94;5419483;26;20060;-68
2024/04/16 03:12:20;;;;;;;6.95;1.90;;;;;;;-141.15;100.00;60025.94;5422298;26;22055;-68
2024/04/16 03:14:51;;;;;;;6.15;1.88;;;;;;;-141.15;100.00;60025.94;5419805;26;20746;-68
2024/04/16 03:17:22;;;;;;;3.45;2.15;;;;;;;-141.15;100.00;60025.94;5423117;26;21995;-68
2024/04/16 03:19:52;;;;;;;6.05;2.42;;;;;;;-141.15;100.00;60025.94;5418546;26;22112;-68
2024/04/16 03:22:23;;;;;;;5.50;2.58;;;;;;;-141.15;100.00;60025.94;5422209;26;20025;-69
2024/04/16 03:24:53;;;;;;;6.82;2.80;;;;;;;-141.15;100.00;60025.94;5418398;26;20127;-68
2024/04/16 03:27:23;;;;;;;10.38;3.60;;;;;;;-141.15;100.00;60025.94;5421008;26;20004;-69
2024/04/16 03:29:53;;;;;;;7.82;3.10;;;;;;;-141.15;100.00;60025.94;5420572;26;20020;-68
2024/04/16 03:32:24;;;;;;;6.57;3.60;;;;;;;-141.15;100.00;60025.94;5422496;26;20012;-69
2024/04/16 03:34:54;;;;;;;7.90;3.75;;;;;;;-141.15;100.00;60025.94;5420179;26;20013;-67
2024/04/16 03:37:25;;;;;;;11.07;3.88;;;;;;;-141.15;100.00;60025.94;5422154;26;20014;-69
2024/04/16 03:39:55;;;;;;;7.63;4.05;;;;;;;-141.15;100.00;60025.94;5421933;26;20327;-69
2024/04/16 03:42:25;;;;;;;8.93;4.22;;;;;;;-141.15;100.00;60025.94;5421837;26;20024;-68
2024/04/16 03:44:56;;;;;;;9.07;4.43;;;;;;;-141.15;100.00;60025.94;5418741;26;20009;-68
2024/04/16 03:47:26;;;;;;;9.23;4.65;;;;;;;-141.15;100.00;60025.94;5422608;26;20009;-68
2024/04/16 03:49:56;;;;;;;10.82;4.30;;;;;;;-141.15;100.00;60025.94;5420049;26;20028;-68
2024/04/16 03:52:27;;;;;;;11.77;4.80;;;;;;;-141.15;100.00;60025.94;5421631;26;20662;-69
2024/04/16 03:54:57;;;;;;;15.93;5.35;;;;;;;-141.15;100.00;60025.94;5420083;26;20116;-69
2024/04/16 03:57:28;;;;;;;17.52;5.80;;;;;;;-141.15;100.00;60025.94;5421694;26;20041;-69
2024/04/16 04:02:48;;;;;;;13.00;5.45;;;;;;;-141.15;100.00;60025.94;5420141;26;21483;-69
2024/04/16 04:05:18;;;;;;;12.82;5.47;;;;;;;-141.15;100.00;60025.94;5422228;26;20037;-69
2024/04/16 04:07:48;;;;;;;12.98;5.60;;;;;;;-141.15;100.00;60025.94;5419994;26;20111;-68
2024/04/16 04:10:18;;;;;;;14.80;5.03;;;;;;;-141.15;100.00;60025.94;5419869;26;20005;-69
2024/04/16 04:12:49;;;;;;;15.98;4.35;;;;;;;-141.15;100.00;60025.94;5422523;26;20020;-68
2024/04/16 04:15:19;;;;;;;11.55;4.65;;;;;;;-141.15;100.00;60025.94;5420068;26;20351;-69
2024/04/16 04:17:49;;;;;;;10.48;4.50;;;;;;;-141.15;100.00;60025.94;5420651;26;21919;-69
2024/04/16 04:20:19;;;;;;;12.68;4.15;;;;;;;-141.15;100.00;60025.94;5418946;26;22197;-68
2024/04/16 04:22:50;;;;;;;12.07;4.00;;;;;;;-141.15;100.00;60025.94;5419641;26;20000;-68
2024/04/16 04:25:20;;;;;;;12.05;4.15;;;;;;;-141.15;100.00;60025.94;5416076;26;20061;-69
2024/04/16 04:27:53;;;;;;;13.75;3.70;;;;;;;-141.15;100.00;60025.94;5416288;26;20466;-69
2024/04/16 04:30:24;;;;;;;11.75;3.65;;;;;;;-141.15;100.00;60025.94;5421057;26;20369;-68
2024/04/16 04:32:54;;;;;;;9.80;3.55;;;;;;;-141.15;100.00;60025.94;5422219;26;20778;-68
2024/04/16 04:35:25;;;;;;;13.93;3.92;;;;;;;-141.15;100.00;60025.94;5417668;26;20099;-68
2024/04/16 04:37:55;;;;;;;12.93;3.90;;;;;;;-141.15;100.00;60025.94;5421376;26;20099;-69
2024/04/16 04:40:26;;;;;;;10.80;3.75;;;;;;;-141.15;100.00;60025.94;5421356;26;20016;-68
2024/04/16 04:42:58;;;;;;;14.68;3.90;;;;;;;-141.15;100.00;60025.94;5419920;26;20024;-68
2024/04/16 04:45:28;;;;;;;13.35;3.80;;;;;;;-141.15;100.00;60025.94;5420854;26;20384;-69
2024/04/16 04:47:59;;;;;;;11.10;3.55;;;;;;;-141.15;100.00;60025.94;5421781;26;20024;-68
2024/04/16 04:50:29;;;;;;;12.07;3.67;;;;;;;-141.15;100.00;60025.94;5419872;26;20005;-68
2024/04/16 04:53:00;;;;;;;12.80;3.85;;;;;;;-141.15;100.00;60025.94;5418697;26;20076;-69
2024/04/16 04:55:31;;;;;;;19.40;4.22;;;;;;;-141.15;100.00;60025.94;5421176;26;20021;-69
2024/04/16 04:58:01;;;;;;;16.83;4.22;;;;;;;-141.15;100.00;60025.94;5417965;26;22277;-69
2024/04/16 05:00:33;;;;;;;12.73;4.18;;;;;;;-141.15;100.00;60025.94;5420937;26;20367;-69
2024/04/16 05:03:03;;;;;;;13.90;3.88;;;;;;;-141.15;100.00;60025.94;5421590;26;20380;-69
2024/04/16 05:05:33;;;;;;;15.52;4.25;;;;;;;-141.15;100.00;60025.94;5419552;26;20095;-69
2024/04/16 05:08:04;;;;;;;14.00;3.97;;;;;;;-141.15;100.00;60025.94;5421130;26;21797;-69
2024/04/16 05:10:34;;;;;;;12.27;4.10;;;;;;;-141.15;100.00;60025.94;5419780;26;20004;-69
2024/04/16 05:13:05;;;;;;;13.45;4.03;;;;;;;-141.15;100.00;60025.94;5420159;26;20027;-69
2024/04/16 05:15:35;;;;;;;17.95;4.30;;;;;;;-141.15;100.00;60025.94;5419849;26;20040;-68
2024/04/16 05:18:05;;;;;;;14.90;3.55;;;;;;;-141.15;100.00;60025.94;5420583;26;21599;-68
2024/04/16 05:20:36;;;;;;;15.90;4.15;;;;;;;-141.15;100.00;60025.94;5420179;26;20004;-68
2024/04/16 05:23:06;;;;;;;14.73;3.70;;;;;;;-141.15;100.00;60025.94;5420276;26;20227;-69
2024/04/16 05:28:17;;;;;;;14.23;3.38;;;;;;;-141.15;100.00;60025.94;5375995;26;20025;-71
2024/04/16 05:30:47;;;;;;;14.90;3.78;;;;;;;-141.15;100.00;60025.94;5382280;26;20107;-71
2024/04/16 05:33:17;;;;;;;14.35;4.03;;;;;;;-141.15;100.00;60025.94;5385378;26;20025;-71
2024/04/16 05:35:48;;;;;;;17.17;3.30;;;;;;;-141.15;100.00;60025.94;5384073;26;20013;-71
2024/04/16 05:38:19;;;;;;;17.35;3.30;;;;;;;-141.15;100.00;60025.94;5420794;26;20094;-71
2024/04/16 05:40:50;;;;;;;15.25;3.38;;;;;;;-141.15;100.00;60025.94;5418169;26;20005;-71
2024/04/16 05:43:20;;;;;;;16.98;3.30;;;;;;;-141.15;100.00;60025.94;5419656;26;20026;-70
2024/04/16 05:45:50;;;;;;;10.55;3.00;;;;;;;-141.15;100.00;60025.94;5417891;26;20016;-71
2024/04/16 05:48:21;;;;;;;16.90;3.22;;;;;;;-141.15;100.00;60025.94;5421096;26;20090;-71
2024/04/16 05:50:51;;;;;;;14.43;2.97;;;;;;;-141.15;100.00;60025.94;5420263;26;22525;-71
2024/04/16 05:53:21;;;;;;;12.77;2.90;;;;;;;-141.15;100.00;60025.94;5418940;26;20025;-71
2024/04/16 05:55:52;;;;;;;10.60;2.80;;;;;;;-141.15;100.00;60025.94;5415924;26;20114;-71
2024/04/16 05:58:24;;;;;;;12.02;2.95;;;;;;;-141.15;100.00;60025.94;5389902;26;20008;-71
2024/04/16 06:00:54;;;;;;;11.93;2.92;;;;;;;-141.15;100.00;60025.94;5418160;26;20719;-71
2024/04/16 06:03:24;;;;;;;11.63;2.65;;;;;;;-141.15;100.00;60025.94;5405496;26;20005;-71
2024/04/16 06:05:54;;;;;;;14.07;3.00;;;;;;;-141.15;100.00;60025.94;5417295;26;20677;-71
2024/04/16 06:08:25;;;;;;;11.38;2.97;;;;;;;-141.15;100.00;60025.94;5418371;26;20019;-71
2024/04/16 06:10:55;;;;;;;12.43;2.90;;;;;;;-141.15;100.00;60025.94;5420001;26;20024;-72
2024/04/16 06:13:25;;;;;;;11.60;2.90;;;;;;;-141.15;100.00;60025.94;5421962;26;20254;-71
2024/04/16 06:15:56;;;;;;;11.95;2.90;;;;;;;-141.15;100.00;60025.94;5420132;26;20024;-70
2024/04/16 06:18:27;;;;;;;15.00;2.80;;;;;;;-141.15;100.00;60025.94;5420586;26;20703;-71
2024/04/16 06:20:58;;;;;;;9.95;2.30;;;;;;;-141.15;100.00;60025.94;5418542;26;20015;-70
2024/04/16 06:23:28;;;;;;;11.13;2.78;;;;;;;-141.15;100.00;60025.94;5421423;26;20005;-71
2024/04/16 06:26:05;;;;;;;18.65;2.80;;;;;;;-141.15;100.00;60025.94;5418833;26;20005;-71
2024/04/16 06:28:36;;;;;;;14.15;2.53;;;;;;;-141.15;100.00;60025.94;5420335;26;20757;-72
2024/04/16 06:31:06;;;;;;;11.20;2.50;;;;;;;-141.15;100.00;60025.94;5418709;26;20005;-71
2024/04/16 06:33:37;;;;;;;15.38;2.40;;;;;;;-141.15;100.00;60025.94;5419634;26;20261;-71
2024/04/16 06:36:07;;;;;;;13.10;2.50;;;;;;;-141.15;100.00;60025.94;5420215;26;21702;-72
2024/04/16 06:38:38;;;;;;;13.10;3.08;;;;;;;-141.15;100.00;60025.94;5420561;26;20450;-71
2024/04/16 06:41:08;;;;;;;13.65;2.63;;;;;;;-141.15;100.00;60025.94;5419767;26;20107;-71
2024/04/16 06:43:38;;;;;;;15.85;2.50;;;;;;;-141.15;100.00;60025.94;5420639;26;20068;-71
2024/04/16 06:46:09;;;;;;;9.45;2.45;;;;;;;-141.15;100.00;60025.94;5420410;26;20202;-72
2024/04/16 06:48:39;;;;;;;12.75;2.47;;;;;;;-141.15;100.00;60025.94;5418814;26;20015;-70
2024/04/16 06:51:09;;;;;;;14.50;2.50;;;;;;;-141.15;100.00;60025.94;5420521;26;20669;-71
2024/04/16 06:53:40;;;;;;;16.48;2.28;;;;;;;-141.15;100.00;60025.94;5420371;26;20013;-72
2024/04/16 06:56:10;;;;;;;9.88;2.30;;;;;;;-141.15;100.00;60025.94;5419395;26;20019;-71
2024/04/16 06:58:40;;;;;;;8.23;2.13;;;;;;;-141.15;100.00;60025.94;5419245;26;20082;-71
2024/04/16 07:01:10;;;;;;;11.43;2.50;;;;;;;-141.15;100.00;60025.94;5420387;26;20365;-71
2024/04/16 07:03:41;;;;;;;9.15;2.40;;;;;;;-141.15;100.00;60025.94;5464851;26;20001;-73
2024/04/16 07:06:11;;;;;;;10.93;2.30;;;;;;;-141.15;100.00;60025.94;5506301;26;19997;-74
2024/04/16 07:08:41;;;;;;;8.30;2.40;;;;;;;-141.15;100.00;60025.94;5507290;26;20247;-74
2024/04/16 07:11:12;;;;;;;11.13;2.50;;;;;;;-141.15;100.00;60025.94;5509506;26;20005;-74
2024/04/16 07:13:45;;;;;;;8.60;2.17;;;;;;;-141.15;100.00;60025.94;5507068;26;20039;-72
2024/04/16 07:16:15;;;;;;;10.25;2.35;;;;;;;-141.15;100.00;60025.94;5510387;26;20004;-70
2024/04/16 07:18:47;;;;;;;11.73;2.10;;;;;;;-141.15;100.00;60025.94;5509033;26;20013;-73
2024/04/16 07:21:17;;;;;;;9.48;2.30;;;;;;;-141.15;100.00;60025.94;5514953;26;20127;-74
2024/04/16 07:23:48;;;;;;;7.78;1.85;;;;;;;-141.15;100.00;60025.94;5509772;26;20267;-72
2024/04/16 07:26:18;;;;;;;6.68;1.95;;;;;;;-141.15;100.00;60025.94;5515439;26;20001;-74
2024/04/16 07:28:48;;;;;;;10.10;2.03;;;;;;;-141.15;100.00;60025.94;5512504;26;20013;-73
2024/04/16 07:31:19;;;;;;;6.97;2.13;;;;;;;-141.15;100.00;60025.94;5514088;26;20360;-74
2024/04/16 07:33:49;;;;;;;8.40;2.13;;;;;;;-141.15;100.00;60025.94;5508540;26;20013;-73
2024/04/16 07:36:19;;;;;;;11.35;2.63;;;;;;;-141.15;100.00;60025.94;5510725;26;19997;-74
2024/04/16 07:38:50;;;;;;;8.95;1.92;;;;;;;-141.15;100.00;60025.94;5512432;26;20278;-74
2024/04/16 07:41:20;;;;;;;6.53;1.90;;;;;;;-141.15;100.00;60025.94;5505783;26;20599;-73
2024/04/16 07:43:50;;;;;;;7.80;1.83;;;;;;;-141.15;100.00;60025.94;5512847;26;20011;-75
2024/04/16 07:46:21;;;;;;;8.70;2.05;;;;;;;-141.15;100.00;60025.94;5513929;26;20023;-74
2024/04/16 07:48:51;;;;;;;5.55;1.65;;;;;;;-141.15;100.00;60025.94;5509333;26;20001;-74
2024/04/16 07:51:21;;;;;;;7.82;2.00;;;;;;;-141.15;100.00;60025.94;5515724;26;20360;-74
2024/04/16 07:53:51;;;;;;;8.02;1.98;;;;;;;-141.15;100.00;60025.94;5509401;26;20001;-74
2024/04/16 07:56:22;;;;;;;8.57;2.15;;;;;;;-141.15;100.00;60025.94;5512698;26;20235;-73
2024/04/16 07:58:52;;;;;;;5.68;1.92;;;;;;;-141.15;100.00;60025.94;5510310;26;20016;-74
2024/04/16 08:01:22;;;;;;;7.40;1.80;;;;;;;-141.15;100.00;60025.94;5512019;26;20044;-73
2024/04/16 08:03:52;;;;;;;8.05;2.10;;;;;;;-141.15;100.00;60025.94;5509651;26;20107;-74
2024/04/16 08:06:23;;;;;;;5.30;1.90;;;;;;;-141.15;100.00;60025.94;5513380;26;19997;-74
2024/04/16 08:08:56;;;;;;;5.68;1.55;;;;;;;-141.15;100.00;60025.94;5506712;26;20419;-74
2024/04/16 08:11:26;;;;;;;4.20;1.65;;;;;;;-141.15;100.00;60025.94;5511320;26;20011;-73
2024/04/16 08:13:56;;;;;;;5.75;1.48;;;;;;;-141.15;100.00;60025.94;5513682;26;20351;-74
2024/04/16 08:16:27;;;;;;;4.35;1.45;;;;;;;-141.15;100.00;60025.94;5509252;26;20011;-74
2024/04/16 08:18:57;;;;;;;4.15;1.65;;;;;;;-141.15;100.00;60025.94;5510412;26;20408;-74
2024/04/16 08:21:27;;;;;;;5.10;1.70;;;;;;;-141.15;100.00;60025.94;5514064;26;20005;-74
2024/04/16 08:23:58;;;;;;;7.43;2.10;;;;;;;-141.15;100.00;60025.94;5512238;26;20054;-74
2024/04/16 08:26:28;;;;;;;5.82;1.60;;;;;;;-141.15;100.00;60025.94;5507449;26;20004;-74
2024/04/16 08:28:59;;;;;;;7.07;1.45;;;;;;;-141.15;100.00;60025.94;5512707;26;19997;-74
2024/04/16 08:31:29;;;;;;;7.68;1.95;;;;;;;-141.15;100.00;60025.94;5508772;26;20005;-73
2024/04/16 08:34:01;;;;;;;7.53;1.60;;;;;;;-141.15;100.00;60025.94;5512618;26;19997;-73
2024/04/16 08:36:32;;;;;;;4.97;1.40;;;;;;;-141.15;100.00;60025.94;5510745;26;19993;-73
2024/04/16 08:39:03;;;;;;;6.20;1.77;;;;;;;-141.15;100.00;60025.94;5510418;26;20001;-74
2024/04/16 08:41:37;;;;;;;4.22;1.70;;;;;;;-141.15;100.00;60025.94;5512737;26;20658;-73
2024/04/16 08:44:07;;;;;;;4.75;1.50;;;;;;;-141.15;100.00;60025.94;5512913;26;19997;-73
2024/04/16 08:46:39;;;;;;;3.90;1.20;;;;;;;-141.15;100.00;60025.94;5512211;26;20059;-72
2024/04/16 08:49:11;;;;;;;4.28;1.20;;;;;;;-141.15;100.00;60025.94;5512382;26;20002;-74
2024/04/16 08:51:42;;;;;;;4.40;1.33;;;;;;;-141.15;100.00;60025.94;5512858;26;20041;-74
2024/04/16 08:54:14;;;;;;;4.35;1.45;;;;;;;-141.15;100.00;60025.94;5514234;26;20075;-74
2024/04/16 08:56:46;;;;;;;3.80;1.20;;;;;;;-141.15;100.00;60025.94;5509484;26;20340;-74
2024/04/16 08:59:17;;;;;;;4.45;1.52;;;;;;;-141.15;100.00;60025.94;5511665;26;20015;-75
2024/04/16 09:01:48;;;;;;;7.13;1.70;;;;;;;-141.15;100.00;60025.94;5509726;26;20079;-73
2024/04/16 09:04:19;;;;;;;5.90;1.50;;;;;;;-141.15;100.00;60025.94;5513943;26;20495;-73
2024/04/16 09:06:51;;;;;;;5.20;1.38;;;;;;;-141.15;100.00;60025.94;5506650;26;20005;-73
2024/04/16 09:09:21;;;;;;;5.88;1.40;;;;;;;-141.15;100.00;60025.94;5504222;26;19996;-73
2024/04/16 09:11:51;;;;;;;6.82;1.38;;;;;;;-141.15;100.00;60025.94;5504876;26;20520;-74
2024/04/16 09:14:22;;;;;;;3.30;1.30;;;;;;;-141.15;100.00;60025.94;5510614;26;20032;-74
2024/04/16 09:16:52;;;;;;;3.45;1.17;;;;;;;-141.15;100.00;60025.94;5507908;26;20734;-73
2024/04/16 09:19:26;;;;;;;3.72;1.33;;;;;;;-141.15;100.00;60025.94;5509325;26;20073;-74
2024/04/16 09:22:00;;;;;;;3.83;1.00;;;;;;;-141.15;100.00;60025.94;5508971;26;20004;-74
2024/04/16 09:24:30;;;;;;;5.53;1.40;;;;;;;-141.15;100.00;60025.94;5508628;26;20020;-72
2024/04/16 09:27:07;;;;;;;2.70;1.10;;;;;;;-141.15;100.00;60025.94;5509320;26;20004;-73
2024/04/16 09:29:38;;;;;;;3.97;1.08;;;;;;;-141.15;100.00;60025.94;5506871;26;20029;-72
2024/04/16 09:32:08;;;;;;;4.13;1.17;;;;;;;-141.15;100.00;60025.94;5508545;26;20332;-74
2024/04/16 09:34:44;;;;;;;3.50;1.05;;;;;;;-141.15;100.00;60025.94;5511063;26;20016;-74
2024/04/16 09:37:23;;;;;;;4.43;1.20;;;;;;;-141.15;100.00;60025.94;5510929;26;20300;-71
2024/04/16 09:39:54;;;;;;;2.95;1.40;;;;;;;-141.15;100.00;60025.94;5507077;26;20006;-74
2024/04/16 09:42:26;;;;;;;3.10;1.20;;;;;;;-141.15;100.00;60025.94;5513757;26;20012;-75
2024/04/16 09:44:57;;;;;;;3.65;1.17;;;;;;;-141.15;100.00;60025.94;5509239;26;20056;-74
2024/04/16 09:47:30;;;;;;;2.63;1.00;;;;;;;-141.15;100.00;60025.94;5512919;26;20036;-75
2024/04/16 09:50:01;;;;;;;5.53;1.10;;;;;;;-141.15;100.00;60025.94;5508985;26;20044;-74
2024/04/16 09:52:33;;;;;;;2.00;0.90;;;;;;;-141.15;100.00;60025.94;5513087;26;20018;-74
2024/04/16 09:55:06;;;;;;;5.22;1.15;;;;;;;-141.15;100.00;60025.94;5509637;26;20005;-74
2024/04/16 09:57:37;;;;;;;3.70;1.20;;;;;;;-141.15;100.00;60025.94;5512568;26;19997;-74
2024/04/16 10:00:10;;;;;;;3.40;1.10;;;;;;;-141.15;100.00;60025.94;5509321;26;20538;-74
2024/04/16 10:02:42;;;;;;;3.42;1.10;;;;;;;-141.15;100.00;60025.94;5510416;26;20476;-75
2024/04/16 10:05:14;;;;;;;3.20;1.20;;;;;;;-141.15;100.00;60025.94;5507742;26;19997;-74
2024/04/16 10:07:47;;;;;;;3.55;1.20;;;;;;;-141.15;100.00;60025.94;5508326;26;19997;-74
2024/04/16 10:10:17;;;;;;;4.13;1.30;;;;;;;-141.15;100.00;60025.94;5512828;26;20054;-75
2024/04/16 10:12:49;;;;;;;4.72;1.60;;;;;;;-141.15;100.00;60025.94;5510747;26;20033;-74
2024/04/16 10:15:19;;;;;;;5.50;1.88;;;;;;;-141.15;100.00;60025.94;5512347;26;20012;-74
2024/04/16 10:17:51;;;;;;;4.53;1.50;;;;;;;-141.15;100.00;60025.94;5509986;26;19997;-73
2024/04/16 10:20:23;;;;;;;7.03;1.65;;;;;;;-141.15;100.00;60025.94;5507205;26;20334;-74
2024/04/16 10:22:58;;;;;;;11.15;2.22;;;;;;;-141.15;100.00;60025.94;5510413;26;19997;-74
2024/04/16 10:25:33;;;;;;;6.30;1.23;;;;;;;-141.15;100.00;60025.94;5512378;26;19997;-74
2024/04/16 10:28:04;;;;;;;4.93;1.40;;;;;;;-141.15;100.00;60025.94;5510335;26;20001;-72
2024/04/16 10:30:35;;;;;;;3.20;1.05;;;;;;;-141.15;100.00;60025.94;5513485;26;20005;-75
2024/04/16 10:33:10;;;;;;;3.38;1.30;;;;;;;-141.15;100.00;60025.94;5510428;26;20001;-75
2024/04/16 10:35:44;;;;;;;3.83;1.30;;;;;;;-141.15;100.00;60025.94;5511601;26;20001;-75
2024/04/16 10:38:14;;;;;;;3.70;1.25;;;;;;;-141.15;100.00;60025.94;5511299;26;20005;-74
2024/04/16 10:40:53;;;;;;;4.85;1.52;;;;;;;-141.15;100.00;60025.94;5510729;26;20020;-71
2024/04/16 10:43:25;;;;;;;6.90;2.42;;;;;;;-141.15;100.00;60025.94;5508127;26;20001;-71
2024/04/16 10:45:55;;;;;;;6.10;2.30;;;;;;;-141.15;100.00;60025.94;5508486;26;20001;-71
2024/04/16 10:48:26;;;;;;;4.78;1.70;;;;;;;-141.15;100.00;60025.94;5508019;26;20524;-72
2024/04/16 10:50:56;;;;;;;2.45;0.90;;;;;;;-141.15;100.00;60025.94;5507991;26;20064;-71
2024/04/16 10:53:27;;;;;;;4.05;1.20;;;;;;;-141.15;100.00;60025.94;5513858;26;20009;-72
2024/04/16 10:55:57;;;;;;;2.63;1.17;;;;;;;-141.15;100.00;60025.94;5513650;26;20008;-72
2024/04/16 10:58:29;;;;;;;6.25;1.50;;;;;;;-141.15;100.00;60025.94;5515656;26;20017;-72
2024/04/16 11:00:59;;;;;;;4.95;1.42;;;;;;;-141.15;100.00;60025.94;5512833;26;20001;-71
2024/04/16 11:03:32;;;;;;;5.05;1.45;;;;;;;-141.15;100.00;60025.94;5442900;26;20449;-72
2024/04/16 11:06:03;;;;;;;3.58;1.25;;;;;;;-141.15;100.00;60025.94;5511299;26;20008;-71
2024/04/16 11:08:36;;;;;;;3.72;1.13;;;;;;;-141.15;100.00;60025.94;5511651;26;20012;-73
2024/04/16 11:11:07;;;;;;;5.25;1.30;;;;;;;-141.15;100.00;60025.94;5512330;26;20009;-71
2024/04/16 11:13:37;;;;;;;3.10;1.10;;;;;;;-141.15;100.00;60025.94;5513426;26;20019;-70
2024/04/16 11:16:08;;;;;;;2.80;1.20;;;;;;;-141.15;100.00;60025.94;5514460;26;20013;-72
2024/04/16 11:18:38;;;;;;;4.15;1.20;;;;;;;-141.15;100.00;60025.94;5513154;26;20036;-71
2024/04/16 11:21:09;;;;;;;6.32;1.10;;;;;;;-141.15;100.00;60025.94;5506352;26;20013;-72
2024/04/16 11:23:39;;;;;;;3.92;1.17;;;;;;;-141.15;100.00;60025.94;5510299;26;20406;-71
2024/04/16 11:26:14;;;;;;;3.45;1.20;;;;;;;-141.15;100.00;60025.94;5508880;26;20028;-73
2024/04/16 11:28:44;;;;;;;4.03;1.50;;;;;;;-141.15;100.00;60025.94;5507152;26;20552;-73